sensor_id;sensor_type;location;lat;lon;timestamp;P1;durP1;ratioP1;P2;durP2;ratioP2
6791;SDS011;3433;48.730;9.108;2024-01-11T00:00:20;56.57;;;22.80;;
6791;SDS011;3433;48.730;9.108;2024-01-11T00:02:47;44.93;;;21.07;;
6791;SDS011;3433;48.730;9.108;2024-01-11T00:05:14;54.80;;;23.00;;
6791;SDS011;3433;48.730;9.108;2024-01-11T00:07:42;47.37;;;21.70;;
6791;SDS011;3433;48.730;9.108;2024-01-11T00:10:09;50.00;;;20.53;;
6791;SDS011;3433;48.730;9.108;2024-01-11T00:12:36;49.30;;;21.87;;
6791;SDS011;3433;48.730;9.108;2024-01-11T00:15:03;50.10;;;21.33;;
6791;SDS011;3433;48.730;9.108;2024-01-11T00:17:30;43.80;;;20.27;;
6791;SDS011;3433;48.730;9.108;2024-01-11T00:19:57;46.90;;;20.90;;
6791;SDS011;3433;48.730;9.108;2024-01-11T00:22:24;43.37;;;22.40;;
6791;SDS011;3433;48.730;9.108;2024-01-11T00:24:52;47.10;;;20.50;;
6791;SDS011;3433;48.730;9.108;2024-01-11T00:27:19;42.93;;;20.60;;
6791;SDS011;3433;48.730;9.108;2024-01-11T00:29:46;46.20;;;19.43;;
6791;SDS011;3433;48.730;9.108;2024-01-11T00:32:13;40.97;;;18.80;;
6791;SDS011;3433;48.730;9.108;2024-01-11T00:34:40;41.40;;;17.80;;
6791;SDS011;3433;48.730;9.108;2024-01-11T00:37:07;37.87;;;19.67;;
6791;SDS011;3433;48.730;9.108;2024-01-11T00:39:34;47.90;;;21.77;;
6791;SDS011;3433;48.730;9.108;2024-01-11T00:42:02;46.33;;;20.30;;
6791;SDS011;3433;48.730;9.108;2024-01-11T00:44:29;44.53;;;20.43;;
6791;SDS011;3433;48.730;9.108;2024-01-11T00:46:56;48.73;;;19.33;;
6791;SDS011;3433;48.730;9.108;2024-01-11T00:49:23;52.30;;;20.47;;
6791;SDS011;3433;48.730;9.108;2024-01-11T00:51:50;41.40;;;18.80;;
6791;SDS011;3433;48.730;9.108;2024-01-11T00:54:17;46.30;;;18.20;;
6791;SDS011;3433;48.730;9.108;2024-01-11T00:56:44;40.20;;;19.37;;
6791;SDS011;3433;48.730;9.108;2024-01-11T00:59:12;45.63;;;19.90;;
6791;SDS011;3433;48.730;9.108;2024-01-11T01:01:39;42.70;;;19.40;;
6791;SDS011;3433;48.730;9.108;2024-01-11T01:04:06;45.73;;;22.13;;
6791;SDS011;3433;48.730;9.108;2024-01-11T01:06:32;49.27;;;20.27;;
6791;SDS011;3433;48.730;9.108;2024-01-11T01:08:59;46.73;;;20.50;;
6791;SDS011;3433;48.730;9.108;2024-01-11T01:11:27;45.00;;;21.10;;
6791;SDS011;3433;48.730;9.108;2024-01-11T01:13:54;41.23;;;18.17;;
6791;SDS011;3433;48.730;9.108;2024-01-11T01:16:22;45.77;;;19.90;;
6791;SDS011;3433;48.730;9.108;2024-01-11T01:18:49;43.87;;;19.83;;
6791;SDS011;3433;48.730;9.108;2024-01-11T01:21:16;48.27;;;19.70;;
6791;SDS011;3433;48.730;9.108;2024-01-11T01:23:43;44.47;;;22.17;;
6791;SDS011;3433;48.730;9.108;2024-01-11T01:26:10;43.63;;;19.37;;
6791;SDS011;3433;48.730;9.108;2024-01-11T01:28:37;40.50;;;19.67;;
6791;SDS011;3433;48.730;9.108;2024-01-11T01:31:05;46.10;;;20.23;;
6791;SDS011;3433;48.730;9.108;2024-01-11T01:33:33;46.97;;;20.30;;
6791;SDS011;3433;48.730;9.108;2024-01-11T01:36:00;41.53;;;19.43;;
6791;SDS011;3433;48.730;9.108;2024-01-11T01:38:27;50.57;;;21.03;;
6791;SDS011;3433;48.730;9.108;2024-01-11T01:40:55;42.40;;;19.57;;
6791;SDS011;3433;48.730;9.108;2024-01-11T01:43:22;46.10;;;19.80;;
6791;SDS011;3433;48.730;9.108;2024-01-11T01:45:49;48.83;;;20.60;;
6791;SDS011;3433;48.730;9.108;2024-01-11T01:48:16;49.20;;;20.73;;
6791;SDS011;3433;48.730;9.108;2024-01-11T01:50:44;46.17;;;19.97;;
6791;SDS011;3433;48.730;9.108;2024-01-11T01:53:15;50.27;;;20.40;;
6791;SDS011;3433;48.730;9.108;2024-01-11T01:55:43;43.37;;;19.67;;
6791;SDS011;3433;48.730;9.108;2024-01-11T01:58:11;48.30;;;22.50;;
6791;SDS011;3433;48.730;9.108;2024-01-11T02:00:38;44.57;;;19.63;;
6791;SDS011;3433;48.730;9.108;2024-01-11T02:03:07;43.67;;;19.10;;
6791;SDS011;3433;48.730;9.108;2024-01-11T02:05:35;38.07;;;18.33;;
6791;SDS011;3433;48.730;9.108;2024-01-11T02:08:05;43.70;;;20.80;;
6791;SDS011;3433;48.730;9.108;2024-01-11T02:10:34;40.80;;;20.27;;
6791;SDS011;3433;48.730;9.108;2024-01-11T02:13:01;46.83;;;18.97;;
6791;SDS011;3433;48.730;9.108;2024-01-11T02:15:28;54.87;;;19.60;;
6791;SDS011;3433;48.730;9.108;2024-01-11T02:17:55;39.77;;;18.40;;
6791;SDS011;3433;48.730;9.108;2024-01-11T02:20:22;42.43;;;18.70;;
6791;SDS011;3433;48.730;9.108;2024-01-11T02:22:50;41.80;;;19.60;;
6791;SDS011;3433;48.730;9.108;2024-01-11T02:25:24;50.03;;;19.20;;
6791;SDS011;3433;48.730;9.108;2024-01-11T02:27:50;51.03;;;20.47;;
6791;SDS011;3433;48.730;9.108;2024-01-11T02:30:17;42.57;;;19.13;;
6791;SDS011;3433;48.730;9.108;2024-01-11T02:32:45;47.30;;;21.23;;
6791;SDS011;3433;48.730;9.108;2024-01-11T02:35:13;48.07;;;20.57;;
6791;SDS011;3433;48.730;9.108;2024-01-11T02:37:41;39.03;;;19.50;;
6791;SDS011;3433;48.730;9.108;2024-01-11T02:40:09;44.40;;;18.73;;
6791;SDS011;3433;48.730;9.108;2024-01-11T02:42:39;46.80;;;19.03;;
6791;SDS011;3433;48.730;9.108;2024-01-11T02:45:06;42.07;;;20.43;;
6791;SDS011;3433;48.730;9.108;2024-01-11T02:47:33;44.50;;;20.30;;
6791;SDS011;3433;48.730;9.108;2024-01-11T02:50:00;48.03;;;20.67;;
6791;SDS011;3433;48.730;9.108;2024-01-11T02:52:27;49.80;;;19.67;;
6791;SDS011;3433;48.730;9.108;2024-01-11T02:54:54;48.87;;;20.80;;
6791;SDS011;3433;48.730;9.108;2024-01-11T02:57:21;51.37;;;21.93;;
6791;SDS011;3433;48.730;9.108;2024-01-11T02:59:49;47.27;;;21.00;;
6791;SDS011;3433;48.730;9.108;2024-01-11T03:02:17;45.53;;;19.40;;
6791;SDS011;3433;48.730;9.108;2024-01-11T03:04:44;44.30;;;20.33;;
6791;SDS011;3433;48.730;9.108;2024-01-11T03:07:11;42.73;;;19.53;;
6791;SDS011;3433;48.730;9.108;2024-01-11T03:09:37;44.60;;;19.57;;
6791;SDS011;3433;48.730;9.108;2024-01-11T03:12:04;51.60;;;20.80;;
6791;SDS011;3433;48.730;9.108;2024-01-11T03:14:32;47.90;;;20.30;;
6791;SDS011;3433;48.730;9.108;2024-01-11T03:17:00;47.43;;;21.53;;
6791;SDS011;3433;48.730;9.108;2024-01-11T03:19:27;48.30;;;19.00;;
6791;SDS011;3433;48.730;9.108;2024-01-11T03:21:54;49.20;;;21.77;;
6791;SDS011;3433;48.730;9.108;2024-01-11T03:24:21;51.33;;;20.53;;
6791;SDS011;3433;48.730;9.108;2024-01-11T03:26:51;40.70;;;20.43;;
6791;SDS011;3433;48.730;9.108;2024-01-11T03:29:18;48.83;;;21.63;;
6791;SDS011;3433;48.730;9.108;2024-01-11T03:31:45;45.53;;;20.23;;
6791;SDS011;3433;48.730;9.108;2024-01-11T03:34:13;48.17;;;22.20;;
6791;SDS011;3433;48.730;9.108;2024-01-11T03:36:40;46.33;;;20.30;;
6791;SDS011;3433;48.730;9.108;2024-01-11T03:39:07;46.57;;;20.30;;
6791;SDS011;3433;48.730;9.108;2024-01-11T03:41:34;44.33;;;19.50;;
6791;SDS011;3433;48.730;9.108;2024-01-11T03:44:00;53.03;;;22.20;;
6791;SDS011;3433;48.730;9.108;2024-01-11T03:46:27;42.40;;;18.97;;
6791;SDS011;3433;48.730;9.108;2024-01-11T03:48:54;53.60;;;20.40;;
6791;SDS011;3433;48.730;9.108;2024-01-11T03:51:23;48.70;;;21.60;;
6791;SDS011;3433;48.730;9.108;2024-01-11T03:53:50;49.23;;;21.17;;
6791;SDS011;3433;48.730;9.108;2024-01-11T03:56:17;48.43;;;21.40;;
6791;SDS011;3433;48.730;9.108;2024-01-11T03:58:44;49.43;;;20.90;;
6791;SDS011;3433;48.730;9.108;2024-01-11T04:01:11;49.80;;;20.83;;
6791;SDS011;3433;48.730;9.108;2024-01-11T04:03:38;54.40;;;22.37;;
6791;SDS011;3433;48.730;9.108;2024-01-11T04:06:07;52.87;;;21.00;;
6791;SDS011;3433;48.730;9.108;2024-01-11T04:08:35;60.17;;;21.37;;
6791;SDS011;3433;48.730;9.108;2024-01-11T04:11:02;45.30;;;20.10;;
6791;SDS011;3433;48.730;9.108;2024-01-11T04:13:30;54.10;;;21.40;;
6791;SDS011;3433;48.730;9.108;2024-01-11T04:15:56;57.57;;;21.30;;
6791;SDS011;3433;48.730;9.108;2024-01-11T04:18:23;47.43;;;21.63;;
6791;SDS011;3433;48.730;9.108;2024-01-11T04:20:50;53.77;;;21.00;;
6791;SDS011;3433;48.730;9.108;2024-01-11T04:23:17;56.57;;;23.53;;
6791;SDS011;3433;48.730;9.108;2024-01-11T04:25:45;67.07;;;23.50;;
6791;SDS011;3433;48.730;9.108;2024-01-11T04:28:12;43.70;;;19.80;;
6791;SDS011;3433;48.730;9.108;2024-01-11T04:30:39;45.40;;;20.40;;
6791;SDS011;3433;48.730;9.108;2024-01-11T04:33:06;49.47;;;21.03;;
6791;SDS011;3433;48.730;9.108;2024-01-11T04:35:33;47.43;;;21.00;;
6791;SDS011;3433;48.730;9.108;2024-01-11T04:38:00;53.63;;;22.73;;
6791;SDS011;3433;48.730;9.108;2024-01-11T04:40:26;55.67;;;22.43;;
6791;SDS011;3433;48.730;9.108;2024-01-11T04:42:55;53.20;;;21.43;;
6791;SDS011;3433;48.730;9.108;2024-01-11T04:45:22;50.93;;;20.63;;
6791;SDS011;3433;48.730;9.108;2024-01-11T04:47:49;51.10;;;20.90;;
6791;SDS011;3433;48.730;9.108;2024-01-11T04:50:16;46.97;;;21.33;;
6791;SDS011;3433;48.730;9.108;2024-01-11T04:52:43;44.30;;;19.63;;
6791;SDS011;3433;48.730;9.108;2024-01-11T04:55:10;54.57;;;23.30;;
6791;SDS011;3433;48.730;9.108;2024-01-11T04:57:37;51.97;;;22.70;;
6791;SDS011;3433;48.730;9.108;2024-01-11T05:00:06;47.27;;;20.73;;
6791;SDS011;3433;48.730;9.108;2024-01-11T05:02:34;48.27;;;20.17;;
6791;SDS011;3433;48.730;9.108;2024-01-11T05:05:01;55.20;;;20.20;;
6791;SDS011;3433;48.730;9.108;2024-01-11T05:07:27;50.97;;;22.90;;
6791;SDS011;3433;48.730;9.108;2024-01-11T05:09:54;45.33;;;21.50;;
6791;SDS011;3433;48.730;9.108;2024-01-11T05:12:21;57.33;;;23.00;;
6791;SDS011;3433;48.730;9.108;2024-01-11T05:14:48;48.00;;;22.20;;
6791;SDS011;3433;48.730;9.108;2024-01-11T05:17:16;47.63;;;20.97;;
6791;SDS011;3433;48.730;9.108;2024-01-11T05:19:43;50.23;;;21.90;;
6791;SDS011;3433;48.730;9.108;2024-01-11T05:22:10;53.00;;;21.43;;
6791;SDS011;3433;48.730;9.108;2024-01-11T05:24:37;54.50;;;22.33;;
6791;SDS011;3433;48.730;9.108;2024-01-11T05:27:04;55.00;;;21.63;;
6791;SDS011;3433;48.730;9.108;2024-01-11T05:29:31;52.93;;;21.87;;
6791;SDS011;3433;48.730;9.108;2024-01-11T05:31:57;56.97;;;23.57;;
6791;SDS011;3433;48.730;9.108;2024-01-11T05:34:26;57.30;;;22.00;;
6791;SDS011;3433;48.730;9.108;2024-01-11T05:36:52;60.00;;;22.40;;
6791;SDS011;3433;48.730;9.108;2024-01-11T05:39:19;53.17;;;23.63;;
6791;SDS011;3433;48.730;9.108;2024-01-11T05:41:46;52.17;;;21.63;;
6791;SDS011;3433;48.730;9.108;2024-01-11T05:44:13;46.50;;;23.17;;
6791;SDS011;3433;48.730;9.108;2024-01-11T05:46:46;48.27;;;22.93;;
6791;SDS011;3433;48.730;9.108;2024-01-11T05:49:13;54.33;;;22.80;;
6791;SDS011;3433;48.730;9.108;2024-01-11T05:51:41;43.53;;;21.27;;
6791;SDS011;3433;48.730;9.108;2024-01-11T05:54:08;53.67;;;21.83;;
6791;SDS011;3433;48.730;9.108;2024-01-11T05:56:34;49.73;;;23.03;;
6791;SDS011;3433;48.730;9.108;2024-01-11T05:59:01;47.43;;;22.17;;
6791;SDS011;3433;48.730;9.108;2024-01-11T06:01:28;52.63;;;21.43;;
6791;SDS011;3433;48.730;9.108;2024-01-11T06:03:55;137.93;;;50.97;;
6791;SDS011;3433;48.730;9.108;2024-01-11T06:06:22;148.83;;;41.30;;
6791;SDS011;3433;48.730;9.108;2024-01-11T06:08:50;314.23;;;94.80;;
6791;SDS011;3433;48.730;9.108;2024-01-11T06:11:17;385.90;;;108.53;;
6791;SDS011;3433;48.730;9.108;2024-01-11T06:13:44;410.27;;;112.87;;
6791;SDS011;3433;48.730;9.108;2024-01-11T06:16:12;401.23;;;105.67;;
6791;SDS011;3433;48.730;9.108;2024-01-11T06:18:39;349.23;;;96.30;;
6791;SDS011;3433;48.730;9.108;2024-01-11T06:21:06;304.90;;;79.27;;
6791;SDS011;3433;48.730;9.108;2024-01-11T06:23:33;243.73;;;68.00;;
6791;SDS011;3433;48.730;9.108;2024-01-11T06:26:01;176.00;;;56.97;;
6791;SDS011;3433;48.730;9.108;2024-01-11T06:28:28;139.50;;;46.07;;
6791;SDS011;3433;48.730;9.108;2024-01-11T06:30:55;94.73;;;35.03;;
6791;SDS011;3433;48.730;9.108;2024-01-11T06:36:12;67.10;;;27.10;;
6791;SDS011;3433;48.730;9.108;2024-01-11T06:38:39;54.60;;;25.77;;
6791;SDS011;3433;48.730;9.108;2024-01-11T06:41:07;59.60;;;26.33;;
6791;SDS011;3433;48.730;9.108;2024-01-11T06:43:34;56.37;;;25.83;;
6791;SDS011;3433;48.730;9.108;2024-01-11T06:46:04;67.80;;;26.73;;
6791;SDS011;3433;48.730;9.108;2024-01-11T06:48:31;51.43;;;22.47;;
6791;SDS011;3433;48.730;9.108;2024-01-11T06:50:58;61.13;;;24.90;;
6791;SDS011;3433;48.730;9.108;2024-01-11T06:53:25;50.77;;;23.57;;
6791;SDS011;3433;48.730;9.108;2024-01-11T06:55:52;50.50;;;22.30;;
6791;SDS011;3433;48.730;9.108;2024-01-11T06:58:21;49.70;;;21.67;;
6791;SDS011;3433;48.730;9.108;2024-01-11T07:00:48;51.87;;;22.43;;
6791;SDS011;3433;48.730;9.108;2024-01-11T07:03:15;49.37;;;21.60;;
6791;SDS011;3433;48.730;9.108;2024-01-11T07:05:45;49.57;;;21.97;;
6791;SDS011;3433;48.730;9.108;2024-01-11T07:08:12;51.40;;;23.40;;
6791;SDS011;3433;48.730;9.108;2024-01-11T07:10:39;62.43;;;24.57;;
6791;SDS011;3433;48.730;9.108;2024-01-11T07:13:07;54.77;;;23.57;;
6791;SDS011;3433;48.730;9.108;2024-01-11T07:15:37;58.90;;;22.43;;
6791;SDS011;3433;48.730;9.108;2024-01-11T07:18:04;53.07;;;24.40;;
6791;SDS011;3433;48.730;9.108;2024-01-11T07:20:31;58.20;;;22.70;;
6791;SDS011;3433;48.730;9.108;2024-01-11T07:22:58;52.00;;;23.43;;
6791;SDS011;3433;48.730;9.108;2024-01-11T07:25:25;53.57;;;22.40;;
6791;SDS011;3433;48.730;9.108;2024-01-11T07:27:52;60.57;;;23.77;;
6791;SDS011;3433;48.730;9.108;2024-01-11T07:30:19;60.40;;;24.00;;
6791;SDS011;3433;48.730;9.108;2024-01-11T07:32:47;53.00;;;21.83;;
6791;SDS011;3433;48.730;9.108;2024-01-11T07:35:14;52.60;;;24.10;;
6791;SDS011;3433;48.730;9.108;2024-01-11T07:37:41;57.00;;;24.40;;
6791;SDS011;3433;48.730;9.108;2024-01-11T07:40:09;61.60;;;24.70;;
6791;SDS011;3433;48.730;9.108;2024-01-11T07:42:36;63.13;;;26.30;;
6791;SDS011;3433;48.730;9.108;2024-01-11T07:45:04;48.70;;;21.70;;
6791;SDS011;3433;48.730;9.108;2024-01-11T07:47:31;47.83;;;23.50;;
6791;SDS011;3433;48.730;9.108;2024-01-11T07:50:00;55.27;;;24.03;;
6791;SDS011;3433;48.730;9.108;2024-01-11T07:52:26;53.80;;;25.10;;
6791;SDS011;3433;48.730;9.108;2024-01-11T07:54:54;55.33;;;25.83;;
6791;SDS011;3433;48.730;9.108;2024-01-11T07:57:21;52.17;;;24.60;;
6791;SDS011;3433;48.730;9.108;2024-01-11T07:59:48;59.37;;;28.00;;
6791;SDS011;3433;48.730;9.108;2024-01-11T08:02:18;52.27;;;24.30;;
6791;SDS011;3433;48.730;9.108;2024-01-11T08:04:45;55.03;;;24.33;;
6791;SDS011;3433;48.730;9.108;2024-01-11T08:07:13;58.80;;;25.43;;
6791;SDS011;3433;48.730;9.108;2024-01-11T08:09:40;56.20;;;25.40;;
6791;SDS011;3433;48.730;9.108;2024-01-11T08:12:10;58.87;;;26.00;;
6791;SDS011;3433;48.730;9.108;2024-01-11T08:14:38;55.20;;;25.90;;
6791;SDS011;3433;48.730;9.108;2024-01-11T08:17:07;56.33;;;24.53;;
6791;SDS011;3433;48.730;9.108;2024-01-11T08:19:34;58.63;;;26.70;;
6791;SDS011;3433;48.730;9.108;2024-01-11T08:22:01;59.33;;;25.70;;
6791;SDS011;3433;48.730;9.108;2024-01-11T08:24:29;55.70;;;24.90;;
6791;SDS011;3433;48.730;9.108;2024-01-11T08:26:56;55.50;;;24.57;;
6791;SDS011;3433;48.730;9.108;2024-01-11T08:29:23;53.47;;;24.10;;
6791;SDS011;3433;48.730;9.108;2024-01-11T08:31:50;59.37;;;26.87;;
6791;SDS011;3433;48.730;9.108;2024-01-11T08:34:19;57.80;;;24.83;;
6791;SDS011;3433;48.730;9.108;2024-01-11T08:36:46;49.73;;;24.80;;
6791;SDS011;3433;48.730;9.108;2024-01-11T08:39:13;58.80;;;26.40;;
6791;SDS011;3433;48.730;9.108;2024-01-11T08:41:42;58.80;;;25.07;;
6791;SDS011;3433;48.730;9.108;2024-01-11T08:44:09;58.87;;;27.13;;
6791;SDS011;3433;48.730;9.108;2024-01-11T08:46:36;59.57;;;26.07;;
6791;SDS011;3433;48.730;9.108;2024-01-11T08:49:03;57.57;;;26.57;;
6791;SDS011;3433;48.730;9.108;2024-01-11T08:51:30;62.60;;;27.43;;
6791;SDS011;3433;48.730;9.108;2024-01-11T08:53:58;60.07;;;25.60;;
6791;SDS011;3433;48.730;9.108;2024-01-11T08:56:25;59.23;;;25.40;;
6791;SDS011;3433;48.730;9.108;2024-01-11T08:58:54;54.20;;;26.00;;
6791;SDS011;3433;48.730;9.108;2024-01-11T09:01:23;62.57;;;25.30;;
6791;SDS011;3433;48.730;9.108;2024-01-11T09:03:50;60.73;;;25.00;;
6791;SDS011;3433;48.730;9.108;2024-01-11T09:06:17;50.57;;;23.73;;
6791;SDS011;3433;48.730;9.108;2024-01-11T09:08:44;58.03;;;26.90;;
6791;SDS011;3433;48.730;9.108;2024-01-11T09:11:11;60.77;;;27.50;;
6791;SDS011;3433;48.730;9.108;2024-01-11T09:13:38;57.53;;;25.40;;
6791;SDS011;3433;48.730;9.108;2024-01-11T09:16:06;58.60;;;26.07;;
6791;SDS011;3433;48.730;9.108;2024-01-11T09:18:34;58.53;;;26.27;;
6791;SDS011;3433;48.730;9.108;2024-01-11T09:21:01;57.07;;;26.83;;
6791;SDS011;3433;48.730;9.108;2024-01-11T09:23:28;56.47;;;28.00;;
6791;SDS011;3433;48.730;9.108;2024-01-11T09:25:55;60.50;;;27.70;;
6791;SDS011;3433;48.730;9.108;2024-01-11T09:28:22;64.37;;;28.17;;
6791;SDS011;3433;48.730;9.108;2024-01-11T09:30:49;61.40;;;29.87;;
6791;SDS011;3433;48.730;9.108;2024-01-11T09:33:18;61.73;;;27.87;;
6791;SDS011;3433;48.730;9.108;2024-01-11T09:35:45;63.87;;;27.20;;
6791;SDS011;3433;48.730;9.108;2024-01-11T09:38:12;68.00;;;29.53;;
6791;SDS011;3433;48.730;9.108;2024-01-11T09:40:39;68.97;;;30.93;;
6791;SDS011;3433;48.730;9.108;2024-01-11T09:43:06;65.73;;;28.80;;
6791;SDS011;3433;48.730;9.108;2024-01-11T09:45:36;56.43;;;27.57;;
6791;SDS011;3433;48.730;9.108;2024-01-11T09:48:04;65.83;;;29.60;;
6791;SDS011;3433;48.730;9.108;2024-01-11T09:50:33;62.20;;;28.37;;
6791;SDS011;3433;48.730;9.108;2024-01-11T09:53:01;64.07;;;29.23;;
6791;SDS011;3433;48.730;9.108;2024-01-11T09:55:30;61.17;;;28.37;;
6791;SDS011;3433;48.730;9.108;2024-01-11T09:57:57;59.73;;;27.27;;
6791;SDS011;3433;48.730;9.108;2024-01-11T10:00:26;64.60;;;29.13;;
6791;SDS011;3433;48.730;9.108;2024-01-11T10:02:54;53.87;;;27.97;;
6791;SDS011;3433;48.730;9.108;2024-01-11T10:05:21;56.13;;;26.93;;
6791;SDS011;3433;48.730;9.108;2024-01-11T10:07:50;61.20;;;27.80;;
6791;SDS011;3433;48.730;9.108;2024-01-11T10:10:17;69.50;;;30.60;;
6791;SDS011;3433;48.730;9.108;2024-01-11T10:12:44;64.03;;;30.03;;
6791;SDS011;3433;48.730;9.108;2024-01-11T10:15:13;56.33;;;28.63;;
6791;SDS011;3433;48.730;9.108;2024-01-11T10:17:41;66.70;;;31.27;;
6791;SDS011;3433;48.730;9.108;2024-01-11T10:20:10;62.83;;;29.50;;
6791;SDS011;3433;48.730;9.108;2024-01-11T10:22:38;61.63;;;30.37;;
6791;SDS011;3433;48.730;9.108;2024-01-11T10:25:10;63.27;;;31.00;;
6791;SDS011;3433;48.730;9.108;2024-01-11T10:27:39;63.67;;;29.83;;
6791;SDS011;3433;48.730;9.108;2024-01-11T10:30:08;54.87;;;28.27;;
6791;SDS011;3433;48.730;9.108;2024-01-11T10:32:38;60.53;;;29.10;;
6791;SDS011;3433;48.730;9.108;2024-01-11T10:35:05;64.37;;;29.93;;
6791;SDS011;3433;48.730;9.108;2024-01-11T10:37:32;63.40;;;28.90;;
6791;SDS011;3433;48.730;9.108;2024-01-11T10:40:01;61.10;;;30.10;;
6791;SDS011;3433;48.730;9.108;2024-01-11T10:42:36;56.50;;;28.50;;
6791;SDS011;3433;48.730;9.108;2024-01-11T10:45:08;68.23;;;29.43;;
6791;SDS011;3433;48.730;9.108;2024-01-11T10:47:41;61.20;;;29.67;;
6791;SDS011;3433;48.730;9.108;2024-01-11T10:50:18;57.03;;;28.87;;
6791;SDS011;3433;48.730;9.108;2024-01-11T10:53:02;60.30;;;29.40;;
6791;SDS011;3433;48.730;9.108;2024-01-11T10:55:31;62.60;;;30.57;;
6791;SDS011;3433;48.730;9.108;2024-01-11T10:58:01;64.80;;;30.17;;
6791;SDS011;3433;48.730;9.108;2024-01-11T11:00:29;68.67;;;32.30;;
6791;SDS011;3433;48.730;9.108;2024-01-11T11:02:58;60.93;;;30.20;;
6791;SDS011;3433;48.730;9.108;2024-01-11T11:05:27;61.53;;;30.43;;
6791;SDS011;3433;48.730;9.108;2024-01-11T11:07:54;58.57;;;27.93;;
6791;SDS011;3433;48.730;9.108;2024-01-11T11:10:22;64.33;;;31.73;;
6791;SDS011;3433;48.730;9.108;2024-01-11T11:12:52;63.67;;;31.20;;
6791;SDS011;3433;48.730;9.108;2024-01-11T11:15:24;65.37;;;31.33;;
6791;SDS011;3433;48.730;9.108;2024-01-11T11:17:52;59.50;;;30.57;;
6791;SDS011;3433;48.730;9.108;2024-01-11T11:20:20;53.67;;;27.53;;
6791;SDS011;3433;48.730;9.108;2024-01-11T11:22:48;55.10;;;29.33;;
6791;SDS011;3433;48.730;9.108;2024-01-11T11:25:29;57.83;;;30.47;;
6791;SDS011;3433;48.730;9.108;2024-01-11T11:27:57;67.33;;;30.73;;
6791;SDS011;3433;48.730;9.108;2024-01-11T11:30:27;59.60;;;31.30;;
6791;SDS011;3433;48.730;9.108;2024-01-11T11:32:54;60.73;;;29.27;;
6791;SDS011;3433;48.730;9.108;2024-01-11T11:35:25;64.13;;;31.07;;
6791;SDS011;3433;48.730;9.108;2024-01-11T11:38:01;65.83;;;30.00;;
6791;SDS011;3433;48.730;9.108;2024-01-11T11:44:04;72.13;;;30.53;;
6791;SDS011;3433;48.730;9.108;2024-01-11T11:46:35;63.93;;;31.20;;
6791;SDS011;3433;48.730;9.108;2024-01-11T11:49:03;73.90;;;33.07;;
6791;SDS011;3433;48.730;9.108;2024-01-11T11:51:30;70.23;;;32.47;;
6791;SDS011;3433;48.730;9.108;2024-01-11T11:54:02;67.17;;;33.30;;
6791;SDS011;3433;48.730;9.108;2024-01-11T11:56:29;71.03;;;31.30;;
6791;SDS011;3433;48.730;9.108;2024-01-11T11:58:57;56.63;;;29.10;;
6791;SDS011;3433;48.730;9.108;2024-01-11T12:01:24;57.93;;;29.60;;
6791;SDS011;3433;48.730;9.108;2024-01-11T12:03:53;64.97;;;30.73;;
6791;SDS011;3433;48.730;9.108;2024-01-11T12:06:20;68.60;;;30.50;;
6791;SDS011;3433;48.730;9.108;2024-01-11T12:08:49;61.13;;;29.33;;
6791;SDS011;3433;48.730;9.108;2024-01-11T12:11:19;57.10;;;29.03;;
6791;SDS011;3433;48.730;9.108;2024-01-11T12:13:48;61.80;;;27.80;;
6791;SDS011;3433;48.730;9.108;2024-01-11T12:16:15;63.93;;;30.40;;
6791;SDS011;3433;48.730;9.108;2024-01-11T12:18:42;63.70;;;30.27;;
6791;SDS011;3433;48.730;9.108;2024-01-11T12:21:11;55.17;;;28.50;;
6791;SDS011;3433;48.730;9.108;2024-01-11T12:23:38;63.40;;;31.27;;
6791;SDS011;3433;48.730;9.108;2024-01-11T12:26:06;62.87;;;30.47;;
6791;SDS011;3433;48.730;9.108;2024-01-11T12:28:37;62.07;;;29.43;;
6791;SDS011;3433;48.730;9.108;2024-01-11T12:31:05;60.10;;;30.37;;
6791;SDS011;3433;48.730;9.108;2024-01-11T12:33:32;59.83;;;28.37;;
6791;SDS011;3433;48.730;9.108;2024-01-11T12:36:00;60.47;;;29.80;;
6791;SDS011;3433;48.730;9.108;2024-01-11T12:38:28;55.30;;;29.73;;
6791;SDS011;3433;48.730;9.108;2024-01-11T12:40:55;65.50;;;28.90;;
6791;SDS011;3433;48.730;9.108;2024-01-11T12:43:22;72.37;;;33.47;;
6791;SDS011;3433;48.730;9.108;2024-01-11T12:45:49;79.47;;;30.70;;
6791;SDS011;3433;48.730;9.108;2024-01-11T12:48:16;68.03;;;31.50;;
6791;SDS011;3433;48.730;9.108;2024-01-11T12:50:43;62.90;;;31.07;;
6791;SDS011;3433;48.730;9.108;2024-01-11T12:53:11;67.47;;;31.40;;
6791;SDS011;3433;48.730;9.108;2024-01-11T12:55:44;65.60;;;31.97;;
6791;SDS011;3433;48.730;9.108;2024-01-11T12:58:11;69.60;;;30.80;;
6791;SDS011;3433;48.730;9.108;2024-01-11T13:00:39;57.13;;;29.97;;
6791;SDS011;3433;48.730;9.108;2024-01-11T13:03:06;63.90;;;29.80;;
6791;SDS011;3433;48.730;9.108;2024-01-11T13:05:34;63.80;;;30.40;;
6791;SDS011;3433;48.730;9.108;2024-01-11T13:08:02;60.83;;;31.30;;
6791;SDS011;3433;48.730;9.108;2024-01-11T13:10:33;64.20;;;30.67;;
6791;SDS011;3433;48.730;9.108;2024-01-11T13:13:03;60.67;;;29.00;;
6791;SDS011;3433;48.730;9.108;2024-01-11T13:15:30;69.50;;;31.07;;
6791;SDS011;3433;48.730;9.108;2024-01-11T13:17:57;59.37;;;29.23;;
6791;SDS011;3433;48.730;9.108;2024-01-11T13:20:25;64.23;;;30.33;;
6791;SDS011;3433;48.730;9.108;2024-01-11T13:23:00;63.23;;;30.60;;
6791;SDS011;3433;48.730;9.108;2024-01-11T13:25:38;61.17;;;30.87;;
6791;SDS011;3433;48.730;9.108;2024-01-11T13:28:07;62.57;;;30.77;;
6791;SDS011;3433;48.730;9.108;2024-01-11T13:30:34;68.43;;;33.20;;
6791;SDS011;3433;48.730;9.108;2024-01-11T13:33:02;70.97;;;33.00;;
6791;SDS011;3433;48.730;9.108;2024-01-11T13:35:29;69.03;;;31.50;;
6791;SDS011;3433;48.730;9.108;2024-01-11T13:37:56;61.10;;;30.60;;
6791;SDS011;3433;48.730;9.108;2024-01-11T13:40:23;71.20;;;31.10;;
6791;SDS011;3433;48.730;9.108;2024-01-11T13:42:50;60.13;;;31.00;;
6791;SDS011;3433;48.730;9.108;2024-01-11T13:45:19;52.23;;;28.80;;
6791;SDS011;3433;48.730;9.108;2024-01-11T13:47:45;60.33;;;29.10;;
6791;SDS011;3433;48.730;9.108;2024-01-11T13:50:12;55.73;;;28.70;;
6791;SDS011;3433;48.730;9.108;2024-01-11T13:52:39;75.83;;;30.57;;
6791;SDS011;3433;48.730;9.108;2024-01-11T13:55:07;58.47;;;29.43;;
6791;SDS011;3433;48.730;9.108;2024-01-11T13:57:35;66.37;;;31.97;;
6791;SDS011;3433;48.730;9.108;2024-01-11T14:00:02;52.83;;;29.73;;
6791;SDS011;3433;48.730;9.108;2024-01-11T14:02:31;62.13;;;30.10;;
6791;SDS011;3433;48.730;9.108;2024-01-11T14:04:58;59.83;;;29.53;;
6791;SDS011;3433;48.730;9.108;2024-01-11T14:07:25;63.00;;;30.77;;
6791;SDS011;3433;48.730;9.108;2024-01-11T14:09:52;59.57;;;30.00;;
6791;SDS011;3433;48.730;9.108;2024-01-11T14:12:19;64.30;;;31.70;;
6791;SDS011;3433;48.730;9.108;2024-01-11T14:14:46;52.77;;;29.10;;
6791;SDS011;3433;48.730;9.108;2024-01-11T14:17:13;52.13;;;28.13;;
6791;SDS011;3433;48.730;9.108;2024-01-11T14:19:41;61.67;;;30.70;;
6791;SDS011;3433;48.730;9.108;2024-01-11T14:22:08;58.30;;;28.10;;
6791;SDS011;3433;48.730;9.108;2024-01-11T14:24:35;55.13;;;29.93;;
6791;SDS011;3433;48.730;9.108;2024-01-11T14:27:02;66.30;;;29.90;;
6791;SDS011;3433;48.730;9.108;2024-01-11T14:29:29;58.50;;;30.20;;
6791;SDS011;3433;48.730;9.108;2024-01-11T14:31:56;58.67;;;27.63;;
6791;SDS011;3433;48.730;9.108;2024-01-11T14:34:23;56.60;;;28.00;;
6791;SDS011;3433;48.730;9.108;2024-01-11T14:36:51;68.27;;;31.20;;
6791;SDS011;3433;48.730;9.108;2024-01-11T14:39:18;57.63;;;30.80;;
6791;SDS011;3433;48.730;9.108;2024-01-11T14:41:48;64.57;;;32.37;;
6791;SDS011;3433;48.730;9.108;2024-01-11T14:44:15;63.10;;;31.93;;
6791;SDS011;3433;48.730;9.108;2024-01-11T14:46:42;67.73;;;32.87;;
6791;SDS011;3433;48.730;9.108;2024-01-11T14:49:09;63.80;;;32.00;;
6791;SDS011;3433;48.730;9.108;2024-01-11T14:51:36;70.57;;;31.40;;
6791;SDS011;3433;48.730;9.108;2024-01-11T14:54:04;69.30;;;32.50;;
6791;SDS011;3433;48.730;9.108;2024-01-11T14:56:32;68.67;;;32.23;;